createdAt,value
2019-03-11T00:00:34.643Z,3.60
2019-03-11T00:03:03.462Z,4.12
2019-03-11T00:05:32.628Z,4.20
2019-03-11T00:08:02.191Z,3.85
2019-03-11T00:10:31.480Z,4.60
2019-03-11T00:13:01.670Z,4.50
2019-03-11T00:15:31.072Z,4.10
2019-03-11T00:18:00.703Z,3.40
2019-03-11T00:20:31.950Z,4.00
2019-03-11T00:23:02.797Z,4.10
2019-03-11T00:25:33.976Z,3.80
2019-03-11T00:28:06.004Z,3.85
2019-03-11T00:30:35.396Z,4.25
2019-03-11T00:33:04.901Z,5.30
2019-03-11T00:35:34.157Z,4.53
2019-03-11T00:38:03.544Z,5.60
2019-03-11T00:40:32.280Z,4.00
2019-03-11T00:43:02.005Z,4.58
2019-03-11T00:45:30.971Z,4.05
2019-03-11T00:48:02.284Z,3.95
2019-03-11T00:50:32.424Z,3.30
2019-03-11T00:53:02.365Z,3.95
2019-03-11T00:55:31.788Z,3.40
2019-03-11T00:58:00.859Z,3.62
2019-03-11T01:00:33.708Z,4.60
2019-03-11T01:03:02.898Z,3.90
2019-03-11T01:05:32.075Z,3.55
2019-03-11T01:08:01.719Z,2.77
2019-03-11T01:10:33.328Z,2.90
2019-03-11T01:13:02.775Z,3.52
2019-03-11T01:15:40.839Z,3.20
2019-03-11T01:18:14.294Z,3.58
2019-03-11T01:20:45.896Z,3.35
2019-03-11T01:23:14.598Z,3.92
2019-03-11T01:25:43.601Z,4.50
2019-03-11T01:28:12.486Z,4.40
2019-03-11T01:30:41.152Z,3.50
2019-03-11T01:33:09.767Z,3.40
2019-03-11T01:35:38.977Z,3.05
2019-03-11T01:38:08.062Z,2.83
2019-03-11T01:40:37.975Z,3.70
2019-03-11T01:43:07.432Z,3.20
2019-03-11T01:45:36.892Z,2.77
2019-03-11T01:48:05.960Z,3.05
2019-03-11T01:50:35.229Z,2.90
2019-03-11T01:53:04.429Z,2.87
2019-03-11T01:55:35.800Z,3.70
2019-03-11T01:58:04.470Z,4.30
2019-03-11T02:00:33.205Z,3.50
2019-03-11T02:03:02.258Z,3.95
2019-03-11T02:05:31.637Z,3.60
2019-03-11T02:08:00.719Z,3.77
2019-03-11T02:10:30.779Z,4.00
2019-03-11T02:13:00.645Z,5.05
2019-03-11T02:15:29.385Z,4.95
2019-03-11T02:17:58.049Z,4.22
2019-03-11T02:20:26.815Z,3.40
2019-03-11T02:22:55.951Z,4.55
2019-03-11T02:25:26.030Z,3.50
2019-03-11T02:27:55.170Z,3.30
2019-03-11T02:30:24.697Z,3.58
2019-03-11T02:32:55.165Z,4.53
2019-03-11T02:35:31.969Z,4.03
2019-03-11T02:38:01.430Z,5.50
2019-03-11T02:40:31.632Z,3.65
2019-03-11T02:43:01.263Z,3.98
2019-03-11T02:45:30.385Z,3.70
2019-03-11T02:47:59.689Z,3.90
2019-03-11T02:50:28.848Z,3.37
2019-03-11T02:52:57.930Z,3.58
2019-03-11T02:55:26.748Z,3.52
2019-03-11T02:57:55.508Z,4.00
2019-03-11T03:00:24.156Z,4.22
2019-03-11T03:02:54.390Z,3.80
2019-03-11T03:05:28.365Z,4.20
2019-03-11T03:07:57.079Z,4.00
2019-03-11T03:10:26.390Z,4.15
2019-03-11T03:12:55.805Z,4.05
2019-03-11T03:15:25.238Z,4.25
2019-03-11T03:17:54.700Z,4.50
2019-03-11T03:20:23.721Z,4.20
2019-03-11T03:22:52.744Z,4.58
2019-03-11T03:25:33.073Z,4.28
2019-03-11T03:27:53.204Z,4.40
2019-03-11T03:30:22.502Z,4.87
2019-03-11T03:32:51.827Z,4.20
2019-03-11T03:35:21.072Z,4.47
2019-03-11T03:37:49.704Z,4.90
2019-03-11T03:40:18.943Z,4.22
2019-03-11T03:42:47.986Z,4.65
2019-03-11T03:45:34.624Z,3.45
2019-03-11T03:48:03.576Z,3.80
2019-03-11T03:50:36.911Z,3.70
2019-03-11T03:53:07.765Z,3.80
2019-03-11T03:55:37.105Z,3.75
2019-03-11T03:58:07.636Z,3.30
2019-03-11T04:00:37.857Z,3.65
2019-03-11T04:03:07.478Z,4.17
2019-03-11T04:05:36.552Z,3.55
2019-03-11T04:08:06.219Z,3.47
2019-03-11T04:10:35.359Z,3.92
2019-03-11T04:13:04.845Z,3.95
2019-03-11T04:15:34.243Z,3.22
2019-03-11T04:18:03.580Z,3.45
2019-03-11T04:20:32.852Z,3.55
2019-03-11T04:23:02.489Z,3.75
2019-03-11T04:25:31.779Z,3.20
2019-03-11T04:28:01.051Z,4.00
2019-03-11T04:30:30.378Z,3.20
2019-03-11T04:32:59.560Z,4.25
2019-03-11T04:35:28.869Z,3.77
2019-03-11T04:37:58.231Z,4.12
2019-03-11T04:40:27.216Z,4.35
2019-03-11T04:42:57.457Z,4.53
2019-03-11T04:45:27.344Z,3.65
2019-03-11T04:47:56.788Z,4.35
2019-03-11T04:50:26.178Z,4.15
2019-03-11T04:52:55.238Z,4.53
2019-03-11T04:55:25.590Z,4.90
2019-03-11T04:57:56.364Z,4.17
2019-03-11T05:00:28.956Z,3.72
2019-03-11T05:02:58.476Z,3.33
2019-03-11T05:05:27.540Z,3.33
2019-03-11T05:07:56.196Z,3.77
2019-03-11T05:10:24.835Z,3.40
2019-03-11T05:12:53.480Z,3.92
2019-03-11T05:15:22.328Z,3.80
2019-03-11T05:17:51.157Z,4.25
2019-03-11T05:20:20.529Z,3.50
2019-03-11T05:22:49.696Z,4.15
2019-03-11T05:25:19.776Z,3.47
2019-03-11T05:27:48.930Z,3.72
2019-03-11T05:30:21.460Z,3.60
2019-03-11T05:32:50.912Z,3.35
2019-03-11T05:35:21.321Z,3.60
2019-03-11T05:37:50.937Z,3.50
2019-03-11T05:40:23.678Z,2.95
2019-03-11T05:42:52.953Z,2.70
2019-03-11T05:45:22.341Z,3.45
2019-03-11T05:47:51.752Z,4.00
2019-03-11T05:50:20.622Z,4.20
2019-03-11T05:52:49.603Z,3.52
2019-03-11T05:55:18.305Z,3.45
2019-03-11T05:57:47.533Z,3.60
2019-03-11T06:00:22.550Z,3.60
2019-03-11T06:02:51.625Z,3.72
2019-03-11T06:05:20.977Z,4.42
2019-03-11T06:07:50.261Z,4.65
2019-03-11T06:10:19.165Z,4.10
2019-03-11T06:12:47.842Z,4.85
2019-03-11T06:15:17.575Z,4.10
2019-03-11T06:17:46.317Z,4.10
2019-03-11T06:20:33.391Z,4.20
2019-03-11T06:23:04.473Z,4.75
2019-03-11T06:25:33.831Z,4.60
2019-03-11T06:28:03.481Z,4.83
2019-03-11T06:30:32.137Z,4.70
2019-03-11T06:33:00.672Z,4.85
2019-03-11T06:35:29.307Z,4.92
2019-03-11T06:37:57.861Z,4.67
2019-03-11T06:40:27.511Z,4.87
2019-03-11T06:42:56.495Z,4.20
2019-03-11T06:45:25.414Z,4.50
2019-03-11T06:47:54.599Z,5.00
2019-03-11T06:50:23.677Z,5.37
2019-03-11T06:52:52.917Z,4.47
2019-03-11T06:55:22.201Z,5.30
2019-03-11T06:57:51.829Z,4.40
2019-03-11T07:00:21.684Z,5.33
2019-03-11T07:02:50.907Z,5.40
2019-03-11T07:05:21.217Z,5.17
2019-03-11T07:07:50.935Z,5.45
2019-03-11T07:10:20.122Z,6.12
2019-03-11T07:12:49.621Z,5.90
2019-03-11T07:15:19.789Z,6.10
2019-03-11T07:17:48.912Z,6.45
2019-03-11T07:20:18.631Z,6.97
2019-03-11T07:22:47.431Z,7.30
2019-03-11T07:25:16.099Z,7.15
2019-03-11T07:27:44.927Z,6.50
2019-03-11T07:30:20.868Z,7.08
2019-03-11T07:32:50.012Z,6.33
2019-03-11T07:35:19.278Z,7.12
2019-03-11T07:37:48.676Z,7.30
2019-03-11T07:40:29.151Z,8.08
2019-03-11T07:42:49.002Z,7.33
2019-03-11T07:45:18.581Z,7.08
2019-03-11T07:47:47.667Z,7.58
2019-03-11T07:50:18.003Z,7.70
2019-03-11T07:52:47.164Z,8.40
2019-03-11T07:55:16.232Z,10.85
2019-03-11T07:57:45.408Z,8.00
2019-03-11T08:00:20.981Z,10.85
2019-03-11T08:02:50.246Z,10.23
2019-03-11T08:05:19.462Z,9.93
2019-03-11T08:07:48.927Z,9.43
2019-03-11T08:10:25.379Z,9.83
2019-03-11T08:12:55.999Z,9.65
2019-03-11T08:15:25.527Z,9.00
2019-03-11T08:17:54.770Z,8.93
2019-03-11T08:20:24.384Z,9.85
2019-03-11T08:22:53.886Z,9.33
2019-03-11T08:25:23.406Z,8.10
2019-03-11T08:27:52.837Z,9.10
2019-03-11T08:30:22.357Z,8.75
2019-03-11T08:32:51.683Z,9.33
2019-03-11T08:35:21.106Z,8.65
2019-03-11T08:37:50.484Z,9.80
2019-03-11T08:40:20.684Z,8.50
2019-03-11T08:42:50.205Z,7.70
2019-03-11T08:45:19.655Z,7.75
2019-03-11T08:47:49.345Z,7.95
2019-03-11T08:50:18.145Z,7.95
2019-03-11T08:52:46.819Z,9.30
2019-03-11T08:55:15.636Z,8.93
2019-03-11T08:57:44.689Z,7.72
2019-03-11T09:00:15.322Z,8.75
2019-03-11T09:02:44.747Z,9.73
2019-03-11T09:05:13.905Z,7.85
2019-03-11T09:07:43.036Z,8.25
2019-03-11T09:10:13.772Z,6.80
2019-03-11T09:12:43.080Z,8.40
2019-03-11T09:15:17.263Z,7.50
2019-03-11T09:17:46.283Z,7.28
2019-03-11T09:20:16.323Z,7.90
2019-03-11T09:22:45.941Z,8.05
2019-03-11T09:25:23.013Z,8.05
2019-03-11T09:27:52.329Z,7.37
2019-03-11T09:30:23.957Z,7.80
2019-03-11T09:32:52.810Z,9.73
2019-03-11T09:35:21.464Z,8.48
2019-03-11T09:37:50.242Z,7.62
2019-03-11T09:40:20.995Z,7.85
2019-03-11T09:42:50.041Z,8.35
2019-03-11T09:45:20.709Z,8.35
2019-03-11T09:47:49.480Z,8.35
2019-03-11T09:50:18.503Z,8.38
2019-03-11T09:52:47.136Z,7.05
2019-03-11T09:55:18.606Z,8.90
2019-03-11T09:57:47.917Z,9.05
2019-03-11T10:00:24.854Z,8.90
2019-03-11T10:02:54.084Z,8.85
2019-03-11T10:05:23.189Z,8.75
2019-03-11T10:07:52.374Z,9.65
2019-03-11T10:10:26.575Z,9.90
2019-03-11T10:12:55.627Z,9.35
2019-03-11T10:15:25.036Z,9.40
2019-03-11T10:17:54.530Z,8.88
2019-03-11T10:20:23.849Z,8.68
2019-03-11T10:22:53.208Z,10.00
2019-03-11T10:25:22.513Z,9.60
2019-03-11T10:27:51.832Z,9.28
2019-03-11T10:30:23.075Z,9.23
2019-03-11T10:32:52.525Z,9.38
2019-03-11T10:35:37.126Z,9.23
2019-03-11T10:37:52.651Z,7.42
2019-03-11T10:40:29.322Z,7.70
2019-03-11T10:42:58.622Z,9.43
2019-03-11T10:45:31.791Z,8.33
2019-03-11T10:47:58.417Z,8.93
2019-03-11T10:50:27.772Z,9.53
2019-03-11T10:52:57.304Z,8.85
2019-03-11T10:55:27.187Z,9.18
2019-03-11T10:57:56.490Z,9.60
2019-03-11T11:00:34.869Z,8.20
2019-03-11T11:03:03.553Z,8.75
2019-03-11T11:05:32.932Z,8.08
2019-03-11T11:08:02.267Z,8.60
2019-03-11T11:10:31.987Z,8.90
2019-03-11T11:13:01.288Z,9.00
2019-03-11T11:15:34.288Z,8.00
2019-03-11T11:18:03.718Z,7.97
2019-03-11T11:20:34.051Z,8.73
2019-03-11T11:23:03.462Z,7.75
2019-03-11T11:25:32.840Z,8.60
2019-03-11T11:28:02.717Z,8.33
2019-03-11T11:30:32.377Z,7.60
2019-03-11T11:33:01.600Z,7.78
2019-03-11T11:35:30.791Z,8.33
2019-03-11T11:38:00.233Z,8.65
2019-03-11T11:40:31.179Z,8.43
2019-03-11T11:43:00.359Z,8.50
2019-03-11T11:45:30.383Z,7.67
2019-03-11T11:47:59.472Z,8.10
2019-03-11T11:50:28.746Z,8.85
2019-03-11T11:52:58.002Z,7.67
2019-03-11T11:55:26.733Z,8.40
2019-03-11T11:57:56.145Z,8.33
2019-03-11T12:00:32.795Z,8.23
2019-03-11T12:03:02.204Z,7.33
2019-03-11T12:05:31.469Z,8.73
2019-03-11T12:08:00.567Z,7.97
2019-03-11T12:10:30.499Z,7.80
2019-03-11T12:13:00.179Z,8.80
2019-03-11T12:15:29.507Z,8.15
2019-03-11T12:17:58.919Z,8.30
2019-03-11T12:20:30.933Z,7.80
2019-03-11T12:23:01.323Z,8.63
2019-03-11T12:25:30.612Z,9.25
2019-03-11T12:27:59.974Z,7.92
2019-03-11T12:30:35.268Z,8.65
2019-03-11T12:33:04.517Z,8.38
2019-03-11T12:35:33.253Z,8.18
2019-03-11T12:38:02.016Z,9.93
2019-03-11T12:40:30.773Z,8.23
2019-03-11T12:43:01.079Z,8.38
2019-03-11T12:45:30.589Z,7.70
2019-03-11T12:47:59.888Z,8.35
2019-03-11T12:50:30.709Z,8.95
2019-03-11T12:52:59.897Z,7.20
2019-03-11T12:55:29.358Z,8.45
2019-03-11T12:57:58.507Z,8.25
2019-03-11T13:00:27.810Z,8.03
2019-03-11T13:02:58.388Z,7.78
2019-03-11T13:05:27.717Z,8.43
2019-03-11T13:07:57.211Z,8.58
2019-03-11T13:10:27.341Z,8.63
2019-03-11T13:12:56.599Z,7.87
2019-03-11T13:15:26.619Z,7.92
2019-03-11T13:17:55.253Z,8.30
2019-03-11T13:20:34.652Z,8.93
2019-03-11T13:23:03.410Z,8.25
2019-03-11T13:25:32.161Z,10.20
2019-03-11T13:28:02.063Z,8.70
2019-03-11T13:30:31.048Z,8.58
2019-03-11T13:33:00.487Z,8.53
2019-03-11T13:35:30.757Z,8.25
2019-03-11T13:38:00.083Z,7.47
2019-03-11T13:40:29.302Z,9.20
2019-03-11T13:42:58.509Z,9.03
2019-03-11T13:45:27.684Z,8.20
2019-03-11T13:47:57.189Z,8.68
2019-03-11T13:50:26.295Z,8.35
2019-03-11T13:52:55.721Z,8.43
2019-03-11T13:55:25.076Z,7.80
2019-03-11T13:57:54.580Z,8.65
2019-03-11T14:00:23.447Z,8.95
2019-03-11T14:02:52.247Z,7.87
2019-03-11T14:05:21.609Z,9.03
2019-03-11T14:07:50.788Z,8.88
2019-03-11T14:10:19.951Z,9.28
2019-03-11T14:12:49.437Z,8.60
2019-03-11T14:15:19.019Z,8.20
2019-03-11T14:17:48.954Z,8.45
2019-03-11T14:20:18.600Z,8.05
2019-03-11T14:22:47.827Z,8.18
2019-03-11T14:25:16.881Z,10.08
2019-03-11T14:27:46.342Z,9.35
2019-03-11T14:30:22.163Z,9.45
2019-03-11T14:32:51.556Z,9.33
2019-03-11T14:35:20.742Z,8.58
2019-03-11T14:37:50.046Z,7.83
2019-03-11T14:40:20.147Z,10.00
2019-03-11T14:42:49.717Z,10.30
2019-03-11T14:45:23.014Z,9.53
2019-03-11T14:47:52.104Z,9.10
2019-03-11T14:50:21.112Z,8.38
2019-03-11T14:52:49.769Z,8.53
2019-03-11T14:55:19.220Z,8.78
2019-03-11T14:57:48.401Z,8.85
2019-03-11T15:00:19.806Z,8.93
2019-03-11T15:02:50.105Z,9.78
2019-03-11T15:05:19.980Z,9.75
2019-03-11T15:07:49.119Z,10.75
2019-03-11T15:10:21.079Z,9.50
2019-03-11T15:12:51.480Z,9.43
2019-03-11T15:15:21.920Z,9.13
2019-03-11T15:17:51.188Z,8.90
2019-03-11T15:20:20.895Z,10.63
2019-03-11T15:22:50.182Z,9.13
2019-03-11T15:25:19.806Z,8.73
2019-03-11T15:27:49.084Z,9.25
2019-03-11T15:30:18.840Z,8.40
2019-03-11T15:32:47.683Z,8.83
2019-03-11T15:35:17.290Z,8.60
2019-03-11T15:37:46.711Z,8.68
2019-03-11T15:40:17.685Z,8.00
2019-03-11T15:42:47.033Z,7.80
2019-03-11T15:45:17.043Z,9.60
2019-03-11T15:47:46.265Z,7.67
2019-03-11T15:50:24.815Z,7.70
2019-03-11T15:52:54.218Z,7.67
2019-03-11T15:55:23.682Z,8.38
2019-03-11T15:57:52.870Z,9.13
2019-03-11T16:00:22.593Z,8.35
2019-03-11T16:02:51.835Z,7.75
2019-03-11T16:05:22.095Z,7.53
2019-03-11T16:07:51.414Z,6.40
2019-03-11T16:10:20.680Z,7.53
2019-03-11T16:12:49.903Z,8.35
2019-03-11T16:15:19.795Z,7.33
2019-03-11T16:17:49.116Z,7.80
2019-03-11T16:20:21.225Z,7.70
2019-03-11T16:22:50.788Z,7.45
2019-03-11T16:25:20.002Z,7.28
2019-03-11T16:27:49.249Z,6.67
2019-03-11T16:30:29.238Z,5.93
2019-03-11T16:33:00.680Z,6.72
2019-03-11T16:35:29.779Z,7.00
2019-03-11T16:37:58.656Z,7.08
2019-03-11T16:40:27.746Z,6.67
2019-03-11T16:42:56.783Z,7.42
2019-03-11T16:45:25.951Z,6.47
2019-03-11T16:47:55.050Z,6.40
2019-03-11T16:50:29.884Z,6.12
2019-03-11T16:52:59.118Z,7.12
2019-03-11T16:55:46.359Z,6.65
2019-03-11T16:58:15.114Z,7.10
2019-03-11T17:00:45.889Z,7.30
2019-03-11T17:03:14.911Z,7.25
2019-03-11T17:05:44.471Z,6.73
2019-03-11T17:08:15.440Z,8.37
2019-03-11T17:10:44.944Z,8.50
2019-03-11T17:13:13.993Z,8.53
2019-03-11T17:15:44.646Z,6.10
2019-03-11T17:18:13.795Z,5.70
2019-03-11T17:20:43.097Z,6.50
2019-03-11T17:23:12.179Z,6.07
2019-03-11T17:25:41.084Z,6.40
2019-03-11T17:28:10.198Z,5.30
2019-03-11T17:30:40.041Z,5.50
2019-03-11T17:33:09.454Z,4.70
2019-03-11T17:35:38.846Z,4.60
2019-03-11T17:38:07.875Z,5.00
2019-03-11T17:40:37.160Z,4.93
2019-03-11T17:43:05.836Z,5.43
2019-03-11T17:45:34.512Z,4.80
2019-03-11T17:48:03.338Z,4.83
2019-03-11T17:50:32.719Z,5.37
2019-03-11T17:53:02.736Z,5.00
2019-03-11T17:55:32.164Z,4.90
2019-03-11T17:58:01.588Z,6.33
2019-03-11T18:00:55.029Z,5.43
2019-03-11T18:03:17.173Z,5.50
2019-03-11T18:05:50.444Z,6.40
2019-03-11T18:08:22.777Z,5.60
2019-03-11T18:10:52.097Z,5.33
2019-03-11T18:13:21.168Z,5.20
2019-03-11T18:15:50.533Z,5.30
2019-03-11T18:18:19.733Z,6.43
2019-03-11T18:20:49.053Z,5.63
2019-03-11T18:23:18.540Z,6.00
2019-03-11T18:25:49.375Z,5.37
2019-03-11T18:28:19.184Z,5.50
2019-03-11T18:30:47.932Z,5.03
2019-03-11T18:33:16.685Z,5.47
2019-03-11T18:35:46.793Z,5.43
2019-03-11T18:38:15.538Z,5.30
2019-03-11T18:40:45.600Z,5.30
2019-03-11T18:43:20.552Z,5.13
2019-03-11T18:45:45.492Z,5.40
2019-03-11T18:48:14.829Z,4.77
2019-03-11T18:50:44.177Z,4.30
2019-03-11T18:53:13.291Z,4.50
2019-03-11T18:55:42.473Z,4.30
2019-03-11T18:58:11.778Z,4.83
2019-03-11T19:00:41.089Z,4.20
2019-03-11T19:03:10.516Z,3.97
2019-03-11T19:05:39.400Z,4.40
2019-03-11T19:08:08.930Z,4.07
2019-03-11T19:10:37.670Z,3.87
2019-03-11T19:13:06.407Z,3.57
2019-03-11T19:15:35.366Z,4.03
2019-03-11T19:18:04.066Z,3.90
2019-03-11T19:20:32.827Z,4.10
2019-03-11T19:23:02.258Z,4.10
2019-03-11T19:25:31.475Z,4.30
2019-03-11T19:28:00.558Z,4.30
2019-03-11T19:30:30.236Z,3.80
2019-03-11T19:32:59.654Z,4.27
2019-03-11T19:35:29.165Z,4.10
2019-03-11T19:37:58.569Z,4.30
2019-03-11T19:40:27.710Z,4.07
2019-03-11T19:42:56.995Z,4.20
2019-03-11T19:45:26.478Z,4.00
2019-03-11T19:47:55.997Z,4.53
2019-03-11T19:50:25.571Z,5.00
2019-03-11T19:52:59.209Z,5.20
2019-03-11T19:55:26.126Z,4.57
2019-03-11T19:57:54.886Z,4.17
2019-03-11T20:00:24.538Z,4.23
2019-03-11T20:02:53.301Z,4.03
2019-03-11T20:05:25.432Z,3.97
2019-03-11T20:07:54.961Z,4.33
2019-03-11T20:10:24.417Z,5.10
2019-03-11T20:12:55.183Z,4.03
2019-03-11T20:15:24.480Z,3.93
2019-03-11T20:17:54.861Z,4.30
2019-03-11T20:20:24.051Z,4.20
2019-03-11T20:22:53.595Z,4.30
2019-03-11T20:25:31.914Z,4.13
2019-03-11T20:28:01.065Z,4.30
2019-03-11T20:30:30.499Z,3.90
2019-03-11T20:33:00.001Z,3.67
2019-03-11T20:35:29.118Z,4.67
2019-03-11T20:37:58.535Z,3.10
2019-03-11T20:40:27.320Z,3.80
2019-03-11T20:42:56.053Z,3.47
2019-03-11T20:45:24.705Z,2.97
2019-03-11T20:47:54.367Z,3.10
2019-03-11T20:50:24.115Z,2.60
2019-03-11T20:52:54.137Z,3.30
2019-03-11T20:55:23.384Z,3.27
2019-03-11T20:57:53.062Z,3.63
2019-03-11T21:00:24.093Z,3.50
2019-03-11T21:02:53.793Z,2.90
2019-03-11T21:05:29.282Z,3.17
2019-03-11T21:07:58.564Z,3.37
2019-03-11T21:10:27.779Z,3.27
2019-03-11T21:12:56.913Z,2.47
2019-03-11T21:15:26.184Z,3.10
2019-03-11T21:17:55.498Z,2.90
2019-03-11T21:20:24.973Z,3.60
2019-03-11T21:22:54.211Z,2.60
2019-03-11T21:25:24.299Z,2.30
2019-03-11T21:27:54.083Z,2.80
2019-03-11T21:30:25.006Z,2.60
2019-03-11T21:32:54.355Z,2.23
2019-03-11T21:35:26.356Z,2.67
2019-03-11T21:37:56.063Z,2.47
2019-03-11T21:40:26.146Z,2.43
2019-03-11T21:42:55.306Z,3.07
2019-03-11T21:45:33.562Z,2.60
2019-03-11T21:47:55.510Z,2.60
2019-03-11T21:50:28.304Z,2.40
2019-03-11T21:53:00.073Z,2.63
2019-03-11T21:55:29.385Z,2.60
2019-03-11T21:58:03.682Z,2.03
2019-03-11T22:00:34.353Z,2.60
2019-03-11T22:03:00.836Z,2.43
2019-03-11T22:05:29.992Z,2.60
2019-03-11T22:07:59.568Z,2.10
2019-03-11T22:10:29.058Z,2.33
2019-03-11T22:12:58.373Z,2.00
2019-03-11T22:15:27.659Z,2.50
2019-03-11T22:17:58.133Z,2.60
2019-03-11T22:20:27.427Z,2.07
2019-03-11T22:22:56.500Z,2.70
2019-03-11T22:25:26.038Z,2.20
2019-03-11T22:27:55.164Z,1.90
2019-03-11T22:30:24.469Z,2.20
2019-03-11T22:32:53.752Z,2.30
2019-03-11T22:35:23.357Z,1.90
2019-03-11T22:37:52.490Z,2.63
2019-03-11T22:40:21.627Z,2.43
2019-03-11T22:42:50.916Z,1.83
2019-03-11T22:45:24.085Z,2.30
2019-03-11T22:47:53.499Z,1.73
2019-03-11T22:50:22.685Z,2.10
2019-03-11T22:52:52.212Z,2.40
2019-03-11T22:55:21.390Z,2.13
2019-03-11T22:57:51.317Z,1.90
2019-03-11T23:00:30.574Z,2.30
2019-03-11T23:02:59.831Z,2.40
2019-03-11T23:05:29.503Z,2.93
2019-03-11T23:07:58.840Z,2.30
2019-03-11T23:10:28.231Z,3.10
2019-03-11T23:12:57.451Z,3.33
2019-03-11T23:15:26.652Z,2.53
2019-03-11T23:17:55.894Z,2.90
2019-03-11T23:20:25.367Z,2.67
2019-03-11T23:22:54.767Z,3.30
2019-03-11T23:25:24.039Z,2.30
2019-03-11T23:27:53.283Z,2.77
2019-03-11T23:30:22.637Z,3.30
2019-03-11T23:32:52.311Z,3.43
2019-03-11T23:35:21.756Z,3.40
2019-03-11T23:37:52.444Z,3.30
2019-03-11T23:40:21.844Z,3.30
2019-03-11T23:42:50.899Z,3.53
2019-03-11T23:45:20.187Z,3.53
2019-03-11T23:47:48.831Z,3.50
2019-03-11T23:50:19.549Z,3.50
2019-03-11T23:52:47.742Z,2.90
2019-03-11T23:55:20.920Z,3.50
2019-03-11T23:58:02.264Z,4.53
